Time;durP1;ratioP1;P1;durP2;ratioP2;P2;SDS_P1;SDS_P2;PMS_P1;PMS_P2;Temp;Humidity;BMP_temperature;BMP_pressure;BME280_temperature;BME280_humidity;BME280_pressure;Samples;Min_cycle;Max_cycle;Signal;HPM_P1;HPM_P2
2021/05/11 00:00:35;;;;;;;8.98;1.13;;;;;;;9.46;70.31;99265.84;5051202;28;20052;-49
2021/05/11 00:03:01;;;;;;;9.10;1.52;;;;;;;9.43;70.20;99271.28;5050619;28;20087;-46
2021/05/11 00:05:29;;;;;;;11.63;1.40;;;;;;;9.41;70.22;99291.00;5050852;28;20056;-52
2021/05/11 00:07:56;;;;;;;9.75;2.88;;;;;;;9.38;70.19;99282.66;5051102;28;20033;-49
2021/05/11 00:10:24;;;;;;;8.98;1.25;;;;;;;9.39;70.20;99281.50;5065607;28;20064;-48
2021/05/11 00:12:51;;;;;;;13.18;2.03;;;;;;;9.35;70.19;99299.97;5071266;28;20048;-48
2021/05/11 00:15:18;;;;;;;7.10;0.90;;;;;;;9.32;70.08;99298.75;5070691;28;20414;-50
2021/05/11 00:17:46;;;;;;;12.52;3.10;;;;;;;9.34;70.18;99301.16;5064161;28;20055;-49
2021/05/11 00:20:15;;;;;;;7.32;1.33;;;;;;;9.31;69.98;99293.63;5033050;28;20053;-50
2021/05/11 00:22:42;;;;;;;9.25;1.38;;;;;;;9.25;70.13;99309.72;5051009;28;20041;-48
2021/05/11 00:25:09;;;;;;;7.53;1.48;;;;;;;9.24;69.92;99307.34;5051127;28;20410;-48
2021/05/11 00:27:35;;;;;;;11.00;1.85;;;;;;;9.23;69.88;99306.53;5051189;28;20045;-49
2021/05/11 00:30:03;;;;;;;10.00;1.92;;;;;;;9.24;69.78;99308.09;5050916;28;20557;-48
2021/05/11 00:32:29;;;;;;;8.93;1.80;;;;;;;9.25;69.79;99314.44;5050608;28;20123;-48
2021/05/11 00:34:57;;;;;;;9.38;2.33;;;;;;;9.26;69.58;99332.59;5050812;28;20052;-48
2021/05/11 00:37:23;;;;;;;7.45;1.67;;;;;;;9.23;69.72;99336.09;5050546;28;20498;-49
2021/05/11 00:39:50;;;;;;;11.15;3.13;;;;;;;9.21;69.77;99335.69;5050834;28;20514;-46
2021/05/11 00:42:16;;;;;;;19.02;3.17;;;;;;;9.22;69.76;99328.97;5051030;28;20443;-48
2021/05/11 00:44:46;;;;;;;9.25;1.98;;;;;;;9.21;69.66;99338.44;5051448;28;20045;-47
2021/05/11 00:47:12;;;;;;;12.98;2.47;;;;;;;9.17;69.82;99338.38;5050049;28;20091;-47
2021/05/11 00:49:39;;;;;;;8.13;1.70;;;;;;;9.13;69.95;99335.53;5050559;28;20040;-47
2021/05/11 00:52:07;;;;;;;7.90;3.17;;;;;;;9.12;69.81;99333.97;5050717;28;20033;-47
2021/05/11 00:54:34;;;;;;;5.97;1.38;;;;;;;9.09;69.57;99340.22;5050435;28;20044;-48
2021/05/11 00:57:03;;;;;;;8.13;1.83;;;;;;;9.11;69.70;99343.41;5054284;28;20114;-46
2021/05/11 00:59:30;;;;;;;10.55;4.20;;;;;;;9.10;69.59;99341.84;5054196;28;20581;-47
2021/05/11 01:02:01;;;;;;;9.60;1.58;;;;;;;9.10;69.73;99344.59;5055463;28;20048;-53
2021/05/11 01:04:28;;;;;;;12.15;1.85;;;;;;;9.09;69.70;99351.28;5043520;28;20076;-48
2021/05/11 01:06:54;;;;;;;16.23;2.65;;;;;;;9.08;69.88;99344.16;5054568;28;20098;-48
2021/05/11 01:09:25;;;;;;;8.18;1.80;;;;;;;9.08;69.77;99349.66;5054484;28;20049;-47
2021/05/11 01:11:55;;;;;;;14.13;2.50;;;;;;;9.10;69.83;99341.84;5036294;28;20056;-48
2021/05/11 01:14:22;;;;;;;8.55;2.05;;;;;;;9.11;69.74;99331.56;5053530;28;20041;-47
2021/05/11 01:16:54;;;;;;;10.90;2.22;;;;;;;9.10;69.85;99341.84;5015088;28;20454;-48
2021/05/11 01:19:43;;;;;;;8.77;1.48;;;;;;;9.08;69.71;99344.16;5014432;28;20419;-47
2021/05/11 01:25:07;;;;;;;18.30;3.53;;;;;;;9.02;69.91;99340.13;5013461;28;20042;-47
2021/05/11 01:47:07;;;;;;;11.60;3.47;;;;;;;8.90;69.36;99375.38;5022231;28;20050;-52
2021/05/11 01:52:26;;;;;;;14.48;2.17;;;;;;;8.92;69.27;99386.84;5026676;28;20049;-48
2021/05/11 02:18:04;;;;;;;10.10;2.05;;;;;;;8.85;68.55;99398.56;5033345;28;20287;-47
2021/05/11 02:25:09;;;;;;;8.80;1.70;;;;;;;8.78;68.43;99411.41;5016986;28;20053;-50
2021/05/11 02:27:38;;;;;;;9.35;1.65;;;;;;;8.77;68.41;99404.28;5032940;28;20652;-47
2021/05/11 02:30:09;;;;;;;15.52;2.85;;;;;;;8.76;68.22;99416.53;5033072;28;20380;-47
2021/05/11 02:32:37;;;;;;;8.43;1.85;;;;;;;8.73;68.18;99412.53;5014106;28;20044;-47
2021/05/11 02:35:05;;;;;;;8.25;1.65;;;;;;;8.72;68.03;99408.16;5012931;28;20050;-48
2021/05/11 02:37:32;;;;;;;11.05;2.75;;;;;;;8.73;68.03;99418.03;5013135;28;20073;-47
2021/05/11 02:39:59;;;;;;;19.25;3.38;;;;;;;8.71;68.05;99416.81;5012753;28;20515;-49
2021/05/11 02:42:25;;;;;;;13.75;2.00;;;;;;;8.72;68.08;99424.72;5013193;28;20046;-48
2021/05/11 02:44:52;;;;;;;6.32;1.73;;;;;;;8.71;68.03;99423.09;5012938;28;20095;-46
2021/05/11 02:47:19;;;;;;;11.85;1.80;;;;;;;8.69;68.08;99419.13;5009996;28;20101;-46
2021/05/11 02:49:48;;;;;;;11.98;1.92;;;;;;;8.69;67.94;99425.44;4997418;28;20042;-46
2021/05/11 02:52:14;;;;;;;9.63;2.40;;;;;;;8.69;67.68;99425.44;5005044;28;20073;-47
2021/05/11 02:54:40;;;;;;;10.32;1.55;;;;;;;8.64;67.59;99430.44;5012806;28;20797;-46
2021/05/11 02:57:07;;;;;;;7.90;1.90;;;;;;;8.62;67.84;99430.84;5012636;28;20128;-46
2021/05/11 02:59:39;;;;;;;10.77;2.08;;;;;;;8.59;67.50;99434.31;5020927;28;20050;-46
2021/05/11 03:02:07;;;;;;;10.20;1.83;;;;;;;8.61;67.59;99423.69;5031817;28;20614;-50
2021/05/11 03:04:34;;;;;;;11.98;2.55;;;;;;;8.60;67.80;99427.66;5026665;28;20061;-48
2021/05/11 03:07:00;;;;;;;17.63;4.85;;;;;;;8.56;67.46;99432.28;5012303;28;20054;-46
2021/05/11 03:09:27;;;;;;;10.05;2.55;;;;;;;8.55;67.87;99437.00;5012563;28;20077;-47
2021/05/11 03:11:56;;;;;;;9.27;2.17;;;;;;;8.58;67.71;99435.47;5012329;28;20392;-48
2021/05/11 03:14:23;;;;;;;6.72;2.03;;;;;;;8.59;67.71;99439.81;5012359;28;20038;-47
2021/05/11 03:16:51;;;;;;;12.10;2.45;;;;;;;8.59;67.87;99448.09;5031926;28;20411;-48
2021/05/11 03:19:19;;;;;;;15.85;2.10;;;;;;;8.58;67.93;99457.53;5031808;28;20041;-49
2021/05/11 03:21:45;;;;;;;14.32;1.85;;;;;;;8.56;67.88;99443.31;5031462;28;20073;-49
2021/05/11 03:24:14;;;;;;;16.65;3.92;;;;;;;8.55;67.79;99452.75;5031752;28;20556;-46
2021/05/11 03:26:41;;;;;;;19.60;2.97;;;;;;;8.53;67.98;99449.56;5031919;28;20045;-49
2021/05/11 03:29:07;;;;;;;12.60;2.85;;;;;;;8.49;67.96;99455.00;5031477;28;20119;-47
2021/05/11 03:31:34;;;;;;;14.80;3.22;;;;;;;8.48;68.06;99458.13;5030017;28;20660;-47
2021/05/11 03:34:00;;;;;;;20.40;3.33;;;;;;;8.45;67.88;99456.88;5041932;28;20070;-47
2021/05/11 03:36:26;;;;;;;14.07;2.50;;;;;;;8.44;68.09;99451.75;5049031;28;20049;-48
2021/05/11 03:38:55;;;;;;;9.35;2.38;;;;;;;8.42;68.14;99452.09;5030453;28;20156;-48
2021/05/11 03:41:26;;;;;;;9.00;2.42;;;;;;;8.42;68.00;99460.34;5031321;28;20069;-46
2021/05/11 03:43:57;;;;;;;11.50;2.35;;;;;;;8.42;68.20;99459.56;5031729;28;20049;-50
2021/05/11 03:46:23;;;;;;;10.13;2.67;;;;;;;8.38;68.16;99458.69;5031080;28;20022;-46
2021/05/11 03:48:50;;;;;;;7.63;3.00;;;;;;;8.39;68.11;99454.78;5031365;28;20099;-49
2021/05/11 03:51:17;;;;;;;8.35;2.10;;;;;;;8.39;67.94;99460.31;5044382;28;20135;-48
2021/05/11 03:53:44;;;;;;;15.05;2.90;;;;;;;8.38;68.02;99453.97;5051318;28;20095;-47
2021/05/11 03:56:11;;;;;;;14.05;2.10;;;;;;;8.36;67.93;99461.81;5041711;28;20399;-47
2021/05/11 03:58:38;;;;;;;13.43;3.20;;;;;;;8.34;68.04;99460.59;5031572;28;20084;-48
2021/05/11 04:01:05;;;;;;;9.60;1.80;;;;;;;8.31;68.11;99459.31;5031299;28;20080;-47
2021/05/11 04:03:32;;;;;;;12.32;2.30;;;;;;;8.30;68.04;99459.69;5029824;28;20529;-49
2021/05/11 04:06:00;;;;;;;10.88;2.33;;;;;;;8.27;68.06;99460.41;5031222;28;20053;-48
2021/05/11 04:16:28;;;;;;;9.03;2.30;;;;;;;8.18;68.19;99470.84;5047646;28;20052;-47
2021/05/11 04:18:55;;;;;;;20.88;2.70;;;;;;;8.16;68.19;99465.66;5050854;28;20522;-46
2021/05/11 04:21:23;;;;;;;9.57;2.15;;;;;;;8.15;68.08;99475.13;5051016;28;20045;-51
2021/05/11 04:23:53;;;;;;;11.80;2.70;;;;;;;8.14;67.95;99469.94;5051201;28;20049;-47
2021/05/11 04:26:21;;;;;;;15.52;2.42;;;;;;;8.13;68.15;99473.88;5051081;28;20090;-47
2021/05/11 04:28:51;;;;;;;13.57;2.22;;;;;;;8.12;68.21;99473.06;5050719;28;20051;-49
2021/05/11 04:31:19;;;;;;;15.55;2.47;;;;;;;8.09;68.47;99464.72;5053703;28;20079;-48
2021/05/11 04:33:46;;;;;;;10.20;1.90;;;;;;;8.07;68.55;99469.78;5055304;28;20075;-48
2021/05/11 04:36:14;;;;;;;14.90;2.65;;;;;;;8.06;68.61;99474.50;5054500;28;20118;-47
2021/05/11 04:38:42;;;;;;;15.75;2.33;;;;;;;8.03;68.85;99469.69;5054683;28;20049;-48
2021/05/11 04:41:09;;;;;;;11.23;2.28;;;;;;;7.99;68.83;99475.13;5055427;28;20064;-48
2021/05/11 04:43:39;;;;;;;8.88;2.13;;;;;;;7.97;68.72;99471.94;5045516;28;20130;-48
2021/05/11 04:48:35;;;;;;;14.90;1.98;;;;;;;8.04;68.53;99481.53;5052889;28;20102;-47
2021/05/11 04:51:03;;;;;;;9.95;2.55;;;;;;;8.05;68.46;99480.38;5050909;28;20494;-47
2021/05/11 04:53:30;;;;;;;18.45;2.40;;;;;;;8.05;68.55;99472.91;5053582;28;20076;-48
2021/05/11 04:55:57;;;;;;;15.35;2.50;;;;;;;8.02;68.64;99472.84;5053140;28;20068;-51
2021/05/11 04:58:23;;;;;;;8.38;2.05;;;;;;;8.04;68.81;99481.53;5058112;28;20044;-48
2021/05/11 05:00:51;;;;;;;15.00;3.10;;;;;;;8.05;68.82;99480.38;5073212;28;20051;-49
2021/05/11 05:03:24;;;;;;;13.18;2.50;;;;;;;8.06;68.86;99479.22;5032989;28;20053;-48
2021/05/11 05:05:51;;;;;;;13.80;2.47;;;;;;;8.10;68.81;99480.09;5032605;28;20045;-46
2021/05/11 05:08:18;;;;;;;15.02;2.42;;;;;;;8.12;68.81;99484.09;5033760;28;20049;-47
2021/05/11 05:10:45;;;;;;;11.85;2.63;;;;;;;8.15;68.70;99488.09;5032395;28;20454;-47
2021/05/11 05:13:25;;;;;;;7.22;2.05;;;;;;;8.17;68.54;99480.25;5037376;28;20049;-47
2021/05/11 05:15:57;;;;;;;12.77;2.15;;;;;;;8.21;68.43;99481.13;5063337;28;20140;-46
2021/05/11 05:18:28;;;;;;;7.32;2.13;;;;;;;8.24;68.39;99500.50;5060066;28;20099;-46
2021/05/11 05:20:55;;;;;;;5.75;2.40;;;;;;;8.32;68.43;99493.22;5051865;28;20055;-50
2021/05/11 05:23:30;;;;;;;14.38;2.78;;;;;;;8.31;68.60;99497.16;5053253;28;20044;-51
2021/05/11 05:26:04;;;;;;;16.20;2.42;;;;;;;8.35;68.64;99492.50;5052583;28;20490;-51
2021/05/11 05:28:34;;;;;;;13.85;3.25;;;;;;;8.34;68.67;99499.19;5051573;28;20674;-47
2021/05/11 05:31:02;;;;;;;10.13;2.08;;;;;;;8.39;68.74;99501.66;5035836;28;20068;-47
2021/05/11 05:33:33;;;;;;;16.00;2.00;;;;;;;8.40;68.87;99498.53;5052687;28;20083;-46
2021/05/11 05:36:01;;;;;;;17.33;3.08;;;;;;;8.45;68.77;99500.22;5051812;28;20080;-47
2021/05/11 05:38:28;;;;;;;19.90;3.03;;;;;;;8.47;68.88;99506.19;5052472;28;20095;-49
2021/05/11 05:41:06;;;;;;;19.48;2.28;;;;;;;8.52;68.89;99503.91;5051863;28;20414;-50
2021/05/11 05:43:33;;;;;;;6.00;1.67;;;;;;;8.57;68.86;99511.13;5032793;28;20049;-47
2021/05/11 05:46:00;;;;;;;16.13;1.73;;;;;;;8.60;68.99;99520.63;5052507;28;20524;-50
2021/05/11 05:48:27;;;;;;;10.48;2.75;;;;;;;8.65;68.91;99518.41;5051930;28;20037;-49
2021/05/11 05:50:59;;;;;;;11.70;2.08;;;;;;;8.67;68.74;99520.78;5067523;28;20052;-46
2021/05/11 05:53:35;;;;;;;10.98;2.72;;;;;;;8.72;68.89;99515.78;5049110;28;20367;-48
2021/05/11 05:56:04;;;;;;;7.97;2.08;;;;;;;8.75;68.84;99512.28;5052130;28;20061;-46
2021/05/11 05:58:32;;;;;;;14.00;3.03;;;;;;;8.80;68.72;99523.03;5051163;28;20041;-48
2021/05/11 06:01:04;;;;;;;14.35;3.22;;;;;;;8.83;68.71;99516.78;5052138;28;20068;-48
2021/05/11 06:03:50;;;;;;;12.98;2.58;;;;;;;8.88;68.74;99526.75;5051244;28;20044;-48
2021/05/11 06:06:20;;;;;;;13.38;2.70;;;;;;;8.88;68.64;99521.22;5041205;28;20140;-47
2021/05/11 06:08:49;;;;;;;12.45;2.40;;;;;;;8.90;68.62;99525.22;5054514;28;20044;-53
2021/05/11 06:19:33;;;;;;;8.25;1.73;;;;;;;9.05;68.55;99540.88;5051186;28;20045;-49
2021/05/11 06:22:01;;;;;;;11.32;2.22;;;;;;;9.08;68.66;99540.16;5051288;28;20063;-48
2021/05/11 06:24:28;;;;;;;7.00;1.85;;;;;;;9.10;68.35;99546.13;5051467;28;20036;-49
2021/05/11 06:26:55;;;;;;;15.77;3.05;;;;;;;9.14;68.20;99551.72;5032816;28;20044;-50
2021/05/11 06:29:24;;;;;;;12.35;1.83;;;;;;;9.19;68.08;99554.97;5051394;28;20044;-47
2021/05/11 06:31:51;;;;;;;7.22;2.65;;;;;;;9.23;67.68;99555.06;5051158;28;20049;-50
2021/05/11 06:34:18;;;;;;;16.00;2.10;;;;;;;9.27;67.39;99560.63;5050707;28;20041;-47
2021/05/11 06:36:44;;;;;;;8.48;2.10;;;;;;;9.29;67.35;99563.84;5033613;28;20458;-47
2021/05/11 06:39:14;;;;;;;13.18;2.42;;;;;;;9.31;67.22;99556.78;5050970;28;20048;-50
2021/05/11 06:41:45;;;;;;;5.88;1.85;;;;;;;9.36;67.31;99563.97;5067056;28;20071;-50
2021/05/11 06:44:20;;;;;;;8.88;2.40;;;;;;;9.39;67.46;99563.25;5057499;28;20064;-46
2021/05/11 06:54:44;;;;;;;5.85;1.92;;;;;;;9.51;66.49;99582.41;5030582;28;20164;-46
2021/05/11 06:57:11;;;;;;;17.25;3.97;;;;;;;9.56;66.83;99582.91;5045471;28;20126;-50
2021/05/11 06:59:39;;;;;;;10.80;3.17;;;;;;;9.61;66.70;99588.13;5050615;28;20045;-48
2021/05/11 07:02:06;;;;;;;17.35;3.10;;;;;;;9.67;66.48;99585.88;5032494;28;20091;-47
2021/05/11 07:04:35;;;;;;;16.08;2.50;;;;;;;9.70;66.37;99585.16;5049690;28;20080;-51
2021/05/11 07:07:05;;;;;;;13.18;1.92;;;;;;;9.76;66.15;99589.22;5050449;28;20372;-47
2021/05/11 07:15:01;;;;;;;10.90;1.90;;;;;;;9.94;65.32;99587.56;5042726;28;20061;-46
2021/05/11 07:17:28;;;;;;;17.40;3.10;;;;;;;10.06;65.75;99597.63;5050203;28;20060;-49
2021/05/11 07:19:56;;;;;;;8.70;2.42;;;;;;;10.16;65.96;99597.84;5049598;28;20770;-48
2021/05/11 07:22:23;;;;;;;8.32;2.92;;;;;;;10.26;65.08;99597.22;5034456;28;20128;-48
2021/05/11 07:24:53;;;;;;;18.52;2.50;;;;;;;10.35;65.22;99605.25;5049467;28;20041;-49
2021/05/11 07:29:54;;;;;;;7.55;2.20;;;;;;;10.54;64.92;99601.59;5048454;28;20078;-47
2021/05/11 07:32:22;;;;;;;7.82;1.58;;;;;;;10.65;64.82;99608.06;5064227;28;20044;-47
2021/05/11 07:34:52;;;;;;;13.90;2.13;;;;;;;10.79;64.70;99608.28;5053533;28;20040;-45
2021/05/11 07:37:19;;;;;;;9.60;2.58;;;;;;;10.89;65.02;99619.50;5049536;28;20449;-46
2021/05/11 07:39:46;;;;;;;11.88;2.20;;;;;;;11.00;64.91;99614.13;5048938;28;20037;-47
2021/05/11 07:42:13;;;;;;;21.13;4.47;;;;;;;11.12;65.59;99615.84;5048548;28;20080;-47
2021/05/11 07:44:43;;;;;;;9.68;2.30;;;;;;;11.28;65.62;99614.47;5048591;28;20037;-46
2021/05/11 08:16:44;;;;;;;9.20;2.20;;;;;;;16.03;56.23;99649.84;5049205;28;20186;-49
2021/05/11 08:19:28;;;;;;;8.20;2.55;;;;;;;16.41;54.72;99654.34;5049115;28;20079;-50
2021/05/11 08:30:17;;;;;;;8.43;1.90;;;;;;;17.18;49.57;99666.09;5009023;28;20055;-50
2021/05/11 08:32:50;;;;;;;7.63;2.65;;;;;;;17.15;48.73;99672.50;5039606;28;20041;-49
2021/05/11 08:35:21;;;;;;;9.88;2.00;;;;;;;17.47;48.47;99660.97;5030266;28;20056;-49
2021/05/11 08:37:52;;;;;;;5.35;1.65;;;;;;;17.90;47.90;99667.63;5045586;28;20044;-48
2021/05/11 08:40:19;;;;;;;7.25;1.73;;;;;;;17.49;47.10;99658.53;5042714;28;20437;-51
2021/05/11 08:42:46;;;;;;;5.70;1.40;;;;;;;17.45;47.41;99672.56;5047448;28;20132;-49
2021/05/11 08:45:15;;;;;;;13.27;2.30;;;;;;;17.62;47.35;99677.19;5048258;28;20747;-46
2021/05/11 08:47:49;;;;;;;6.70;1.95;;;;;;;17.82;46.82;99671.72;5029387;28;20057;-50
2021/05/11 08:50:26;;;;;;;7.97;1.95;;;;;;;18.23;46.13;99677.16;5048886;28;20132;-47
2021/05/11 09:26:33;;;;;;;8.20;1.98;;;;;;;13.99;48.96;99687.19;5051457;28;20049;-47
2021/05/11 09:29:06;;;;;;;5.47;1.25;;;;;;;13.94;49.14;99691.16;5052536;28;20049;-48
2021/05/11 09:31:53;;;;;;;4.63;1.08;;;;;;;14.00;48.91;99697.13;5058402;28;20051;-47
2021/05/11 09:51:58;;;;;;;15.43;2.63;;;;;;;14.91;50.98;99692.84;5051501;28;20751;-48
2021/05/11 10:40:37;;;;;;;11.70;2.20;;;;;;;16.57;50.03;99708.97;5059523;28;20060;-48
2021/05/11 10:46:46;;;;;;;8.45;3.33;;;;;;;16.55;49.73;99719.78;5031899;28;20498;-48
2021/05/11 10:49:33;;;;;;;13.05;2.10;;;;;;;16.31;50.42;99705.50;5050236;28;20132;-53
2021/05/11 10:52:22;;;;;;;11.63;2.08;;;;;;;16.21;50.82;99709.16;5049634;28;20072;-46
2021/05/11 10:54:58;;;;;;;10.38;1.85;;;;;;;16.28;50.99;99706.31;5050816;28;20064;-48
2021/05/11 10:57:32;;;;;;;6.00;1.70;;;;;;;16.21;51.30;99725.13;5049242;28;20041;-50
2021/05/11 11:00:46;;;;;;;18.25;2.53;;;;;;;16.14;51.48;99711.22;5049934;28;20079;-48
2021/05/11 11:03:26;;;;;;;14.18;2.33;;;;;;;16.09;51.46;99714.44;5050192;28;20135;-50
2021/05/11 11:05:57;;;;;;;9.25;2.72;;;;;;;16.02;51.40;99711.69;5030870;28;20494;-52
2021/05/11 11:08:33;;;;;;;13.32;3.55;;;;;;;15.67;51.95;99719.00;5049437;28;20102;-47
2021/05/11 11:11:12;;;;;;;9.65;2.25;;;;;;;15.57;52.30;99725.41;5048713;28;20052;-46
2021/05/11 11:13:53;;;;;;;11.48;2.80;;;;;;;15.61;52.78;99726.19;5047592;28;20036;-47
2021/05/11 11:16:40;;;;;;;9.75;2.25;;;;;;;15.51;52.63;99720.66;5049595;28;20049;-47
2021/05/11 11:19:08;;;;;;;11.93;2.20;;;;;;;15.44;52.85;99720.63;5048979;28;20120;-48
2021/05/11 11:24:28;;;;;;;12.20;2.72;;;;;;;15.45;52.82;99733.38;5045822;28;20055;-47
2021/05/11 11:26:57;;;;;;;13.35;2.58;;;;;;;15.35;53.11;99723.06;5048855;28;20045;-50
2021/05/11 11:29:25;;;;;;;9.85;2.20;;;;;;;15.12;52.73;99738.22;5055669;28;20135;-48
2021/05/11 11:31:53;;;;;;;12.52;2.40;;;;;;;15.04;53.49;99714.34;5059157;28;20132;-47
2021/05/11 11:34:35;;;;;;;18.02;3.15;;;;;;;15.17;53.94;99717.50;5049152;28;20041;-50
2021/05/11 11:37:08;;;;;;;12.35;2.20;;;;;;;15.15;54.05;99712.34;5049330;28;20056;-51
2021/05/11 11:39:42;;;;;;;14.40;2.20;;;;;;;15.21;53.75;99733.03;5046834;28;20059;-48
2021/05/11 11:42:22;;;;;;;8.65;2.08;;;;;;;15.25;53.49;99735.81;5058658;28;20053;-49
2021/05/11 11:47:24;;;;;;;10.00;3.40;;;;;;;15.17;53.49;99723.88;5049935;28;20041;-48
2021/05/11 11:49:55;;;;;;;12.27;2.25;;;;;;;15.17;53.41;99729.44;5049459;28;20457;-53
2021/05/11 11:52:32;;;;;;;8.55;2.35;;;;;;;15.21;53.20;99723.88;5048729;28;20049;-46
2021/05/11 12:00:08;;;;;;;7.25;2.83;;;;;;;15.35;52.71;99723.06;5048171;28;20533;-51
2021/05/11 12:02:37;;;;;;;6.05;2.78;;;;;;;15.46;52.83;99726.66;5048879;28;20482;-48
2021/05/11 12:05:11;;;;;;;12.75;3.33;;;;;;;15.55;52.34;99727.00;5062561;28;20041;-48
2021/05/11 12:07:56;;;;;;;19.23;7.25;;;;;;;15.70;52.47;99728.56;5048901;28;20099;-50
2021/05/11 12:10:24;;;;;;;18.58;8.32;;;;;;;15.65;51.87;99731.75;5048833;28;20080;-52
2021/05/11 12:12:52;;;;;;;22.90;6.28;;;;;;;15.55;52.02;99732.59;5048963;28;20044;-49
2021/05/11 12:15:21;;;;;;;34.00;8.30;;;;;;;15.52;51.64;99739.78;5049258;28;20055;-47
2021/05/11 12:18:10;;;;;;;20.63;6.20;;;;;;;15.56;50.94;99729.41;5049071;28;20072;-49
2021/05/11 12:21:01;;;;;;;17.92;5.25;;;;;;;15.74;51.94;99729.34;5059212;28;20098;-54
2021/05/11 12:23:29;;;;;;;19.45;5.78;;;;;;;15.97;51.67;99728.84;5048913;28;20127;-46
2021/05/11 12:26:06;;;;;;;18.13;7.38;;;;;;;15.96;50.38;99739.22;5048784;28;20052;-47
2021/05/11 12:28:40;;;;;;;16.60;6.03;;;;;;;16.01;51.33;99738.00;5049286;28;20037;-47
2021/05/11 12:31:09;;;;;;;9.30;3.42;;;;;;;16.14;51.17;99739.94;5048824;28;20087;-47
2021/05/11 12:33:37;;;;;;;14.60;6.70;;;;;;;16.19;50.87;99736.72;5048959;28;20048;-47
2021/05/11 12:36:19;;;;;;;12.90;4.70;;;;;;;16.26;50.03;99728.28;5048243;28;20053;-47
2021/05/11 12:38:48;;;;;;;16.38;5.60;;;;;;;16.34;50.45;99741.00;5048879;28;20076;-47
2021/05/11 12:41:34;;;;;;;9.40;2.90;;;;;;;16.30;49.98;99745.84;5048324;28;20044;-47
2021/05/11 12:44:01;;;;;;;7.68;2.10;;;;;;;16.33;50.15;99731.06;5045040;28;20053;-51
2021/05/11 12:46:29;;;;;;;8.32;2.25;;;;;;;16.41;50.00;99729.78;5046291;28;20045;-47
2021/05/11 12:49:01;;;;;;;13.80;3.05;;;;;;;16.41;49.89;99737.38;5048554;28;20110;-46
2021/05/11 12:51:43;;;;;;;8.52;3.15;;;;;;;16.44;49.78;99731.75;5048566;28;20047;-49
2021/05/11 12:54:37;;;;;;;11.23;2.45;;;;;;;16.52;49.47;99740.88;5051834;28;20041;-48
2021/05/11 12:57:19;;;;;;;11.02;1.98;;;;;;;16.66;49.71;99757.59;5052119;28;20049;-47
2021/05/11 13:00:10;;;;;;;11.98;2.22;;;;;;;16.72;49.57;99743.97;5052398;28;20073;-48
2021/05/11 13:19:53;;;;;;;7.50;1.80;;;;;;;17.14;48.66;99745.63;5045592;28;20136;-48
2021/05/11 13:23:05;;;;;;;12.15;2.53;;;;;;;17.26;48.83;99745.91;5036118;28;20091;-54
2021/05/11 13:25:24;;;;;;;13.07;2.28;;;;;;;17.41;47.92;99752.97;5043322;28;20049;-49
2021/05/11 13:33:19;;;;;;;10.00;2.03;;;;;;;17.43;47.59;99736.53;5050816;28;20121;-48
2021/05/11 13:35:46;;;;;;;7.70;2.25;;;;;;;17.49;47.36;99748.88;5050625;28;20098;-53
2021/05/11 13:38:13;;;;;;;8.20;2.10;;;;;;;17.35;47.08;99745.41;5052182;28;20045;-53
2021/05/11 13:40:41;;;;;;;14.70;2.00;;;;;;;17.28;46.45;99749.09;5050519;28;20053;-47
2021/05/11 13:43:08;;;;;;;9.48;2.03;;;;;;;17.25;47.01;99749.13;5049936;28;20102;-50
2021/05/11 13:45:35;;;;;;;7.07;1.70;;;;;;;17.18;47.38;99744.41;5059129;28;20044;-48
2021/05/11 13:48:14;;;;;;;11.13;2.30;;;;;;;17.30;47.69;99749.47;5038016;28;20670;-47
2021/05/11 13:53:14;;;;;;;10.40;1.80;;;;;;;17.70;47.92;99750.69;5032717;28;20056;-50
2021/05/11 14:02:16;;;;;;;6.97;1.85;;;;;;;17.54;47.03;99745.66;5037392;28;20564;-51
2021/05/11 14:04:17;;;;;;;12.75;2.92;;;;;;;17.59;47.06;99741.59;5028875;28;20469;-47
2021/05/11 14:06:45;;;;;;;11.52;2.22;;;;;;;17.66;47.16;99747.09;5050575;28;20639;-48
2021/05/11 14:09:13;;;;;;;9.40;1.80;;;;;;;17.70;47.19;99752.69;5051728;28;20045;-54
2021/05/11 14:11:43;;;;;;;8.70;2.60;;;;;;;17.59;47.17;99753.59;5050221;28;20041;-51
2021/05/11 14:14:11;;;;;;;9.63;2.22;;;;;;;17.47;47.37;99756.88;5050505;28;20040;-46
2021/05/11 14:16:43;;;;;;;11.80;3.13;;;;;;;17.62;47.68;99749.97;5050722;28;20067;-50
2021/05/11 14:19:12;;;;;;;11.52;3.13;;;;;;;17.71;47.85;99759.88;5052236;28;20083;-47
2021/05/11 14:21:40;;;;;;;11.52;2.15;;;;;;;17.74;47.90;99759.03;5049979;28;20508;-48
2021/05/11 14:24:08;;;;;;;15.60;2.47;;;;;;;17.97;47.76;99756.34;5051303;28;20048;-49
2021/05/11 14:26:41;;;;;;;10.45;2.03;;;;;;;18.15;47.74;99765.34;5051367;28;20122;-48
2021/05/11 14:29:08;;;;;;;14.32;3.17;;;;;;;18.09;47.90;99764.19;5050301;28;20076;-51
2021/05/11 14:31:35;;;;;;;13.70;2.28;;;;;;;18.12;47.97;99766.16;5050618;28;20744;-47
2021/05/11 14:34:02;;;;;;;6.72;2.08;;;;;;;18.27;47.77;99761.19;5049441;28;20048;-48
2021/05/11 14:36:29;;;;;;;12.05;2.55;;;;;;;18.36;47.52;99765.03;5049740;28;20049;-48
2021/05/11 14:38:57;;;;;;;10.38;2.63;;;;;;;18.42;47.60;99759.75;5050841;28;20075;-50
2021/05/11 14:41:26;;;;;;;8.23;1.88;;;;;;;18.37;47.44;99760.25;5050840;28;20127;-50
2021/05/11 14:43:53;;;;;;;9.38;2.38;;;;;;;18.38;47.27;99764.59;5051756;28;20065;-51
2021/05/11 14:46:20;;;;;;;9.93;2.63;;;;;;;18.19;47.10;99772.47;5050889;28;20052;-49
2021/05/11 14:48:47;;;;;;;8.55;2.20;;;;;;;18.19;47.41;99764.06;5047874;28;20459;-56
2021/05/11 14:51:14;;;;;;;11.75;2.63;;;;;;;18.24;46.91;99763.59;5050383;28;20139;-48
2021/05/11 14:53:41;;;;;;;9.40;2.70;;;;;;;18.32;47.24;99767.09;5049957;28;20140;-52
2021/05/11 14:56:09;;;;;;;10.68;2.45;;;;;;;18.40;47.69;99754.56;5049894;28;20059;-49
2021/05/11 14:58:36;;;;;;;10.90;2.20;;;;;;;18.53;47.31;99760.44;5046132;28;20103;-51
2021/05/11 15:01:04;;;;;;;11.98;2.13;;;;;;;18.59;47.03;99756.72;5050257;28;20055;-51
2021/05/11 15:03:31;;;;;;;10.70;2.58;;;;;;;18.82;46.85;99761.59;5048504;28;20409;-48
2021/05/11 15:06:18;;;;;;;12.75;2.25;;;;;;;18.91;46.73;99759.03;5048572;28;20049;-52
2021/05/11 15:08:46;;;;;;;13.38;4.28;;;;;;;18.90;46.51;99756.66;5050264;28;20135;-52
2021/05/11 15:11:14;;;;;;;8.50;1.60;;;;;;;18.89;46.56;99755.88;5048515;28;20073;-51
2021/05/11 15:13:43;;;;;;;9.98;2.05;;;;;;;19.13;46.08;99763.09;5047899;28;20102;-50
2021/05/11 15:16:12;;;;;;;5.05;1.70;;;;;;;19.35;45.82;99760.72;5049089;28;20059;-49
2021/05/11 15:18:40;;;;;;;7.35;2.10;;;;;;;19.21;45.48;99772.16;5050081;28;20052;-51
2021/05/11 15:21:07;;;;;;;14.68;2.95;;;;;;;19.24;45.58;99762.91;5048353;28;20095;-48
2021/05/11 15:23:34;;;;;;;8.35;2.30;;;;;;;19.16;44.93;99762.22;5044064;28;20044;-50
2021/05/11 15:26:02;;;;;;;11.25;1.88;;;;;;;19.02;45.06;99764.47;5048567;28;20136;-51
2021/05/11 15:28:29;;;;;;;9.18;1.80;;;;;;;18.90;45.54;99776.31;5049519;28;20478;-51
2021/05/11 15:30:56;;;;;;;9.85;2.10;;;;;;;18.91;45.33;99769.44;5048783;28;20064;-52
2021/05/11 15:33:25;;;;;;;6.28;2.30;;;;;;;18.83;45.31;99769.56;5048817;28;20128;-52
2021/05/11 15:35:52;;;;;;;7.68;1.88;;;;;;;18.97;45.15;99778.97;5031106;28;20072;-52
2021/05/11 15:38:19;;;;;;;12.07;2.00;;;;;;;18.98;45.37;99769.34;5049108;28;20055;-53
2021/05/11 15:40:47;;;;;;;9.02;2.67;;;;;;;18.94;45.54;99763.78;5048445;28;20520;-52
2021/05/11 15:43:14;;;;;;;7.75;2.40;;;;;;;19.00;45.66;99780.94;5048463;28;20087;-56
2021/05/11 15:45:40;;;;;;;10.40;2.05;;;;;;;19.06;45.35;99777.22;5049893;28;20135;-47
2021/05/11 15:48:10;;;;;;;9.23;2.38;;;;;;;18.99;45.32;99765.31;5048466;28;20041;-51
2021/05/11 15:50:39;;;;;;;13.48;2.90;;;;;;;18.94;45.64;99768.59;5048915;28;20044;-48
2021/05/11 15:53:11;;;;;;;7.00;2.05;;;;;;;19.03;45.25;99772.47;5048823;28;20048;-51
2021/05/11 15:55:39;;;;;;;;;;;;;;;18.88;45.00;99764.72;5049481;28;20098;-50
2021/05/11 15:58:08;;;;;;;7.18;2.15;;;;;;;18.77;45.71;99760.03;5047603;28;19939;-50
2021/05/11 16:00:36;;;;;;;9.43;2.38;;;;;;;18.47;45.81;99768.53;5049664;28;20091;-49
2021/05/11 16:03:04;;;;;;;8.45;2.15;;;;;;;18.37;46.10;99780.66;5048117;28;20045;-50
2021/05/11 16:05:35;;;;;;;10.25;1.75;;;;;;;18.42;46.02;99779.38;5047877;28;20045;-49
2021/05/11 16:08:07;;;;;;;6.30;1.92;;;;;;;18.20;45.83;99771.25;5049134;28;20041;-51
2021/05/11 16:10:34;;;;;;;11.57;2.40;;;;;;;18.16;46.20;99769.72;5049532;28;20045;-49
2021/05/11 16:13:02;;;;;;;11.27;1.90;;;;;;;18.15;45.82;99768.13;5046914;28;20048;-47
2021/05/11 16:15:30;;;;;;;7.60;1.42;;;;;;;18.22;46.14;99756.81;5038961;28;20144;-50